createdAt,value
2023-04-25T00:00:22.359Z,99.83
2023-04-25T00:02:49.690Z,99.80
2023-04-25T00:05:17.331Z,100.00
2023-04-25T00:07:59.331Z,99.35
2023-04-25T00:10:26.142Z,98.85
2023-04-25T00:12:52.940Z,97.96
2023-04-25T00:15:19.753Z,96.83
2023-04-25T00:17:46.875Z,98.45
2023-04-25T00:20:13.983Z,99.29
2023-04-25T00:22:40.792Z,98.61
2023-04-25T00:25:07.901Z,97.59
2023-04-25T00:27:34.660Z,98.14
2023-04-25T00:30:01.681Z,98.87
2023-04-25T00:32:28.509Z,99.28
2023-04-25T00:34:56.938Z,98.75
2023-04-25T00:37:23.856Z,99.12
2023-04-25T00:39:50.867Z,98.14
2023-04-25T00:42:17.723Z,100.00
2023-04-25T00:44:46.291Z,100.00
2023-04-25T00:47:13.500Z,100.00
2023-04-25T00:49:40.377Z,100.00
2023-04-25T00:52:07.196Z,100.00
2023-04-25T00:54:33.977Z,100.00
2023-04-25T00:57:02.116Z,100.00
2023-04-25T00:59:29.175Z,100.00
2023-04-25T01:01:56.165Z,100.00
2023-04-25T01:04:23.177Z,100.00
2023-04-25T01:06:50.821Z,100.00
2023-04-25T01:09:17.821Z,100.00
2023-04-25T01:11:45.352Z,100.00
2023-04-25T01:14:12.143Z,100.00
2023-04-25T01:16:39.256Z,100.00
2023-04-25T01:19:12.059Z,100.00
2023-04-25T01:21:38.921Z,100.00
2023-04-25T01:24:06.349Z,100.00
2023-04-25T01:26:34.257Z,100.00
2023-04-25T01:29:01.225Z,100.00
2023-04-25T01:31:28.848Z,100.00
2023-04-25T01:33:55.754Z,100.00
2023-04-25T01:36:23.348Z,100.00
2023-04-25T01:38:50.331Z,100.00
2023-04-25T01:41:18.917Z,100.00
2023-04-25T01:43:45.909Z,100.00
2023-04-25T01:46:13.548Z,100.00
2023-04-25T01:48:40.543Z,100.00
2023-04-25T01:51:07.502Z,100.00
2023-04-25T01:53:34.779Z,100.00
2023-04-25T01:56:04.266Z,100.00
2023-04-25T01:58:34.324Z,100.00
2023-04-25T02:01:10.236Z,100.00
2023-04-25T02:03:44.459Z,100.00
2023-04-25T02:06:23.671Z,100.00
2023-04-25T02:08:52.647Z,100.00
2023-04-25T02:11:19.397Z,100.00
2023-04-25T02:13:54.986Z,100.00
2023-04-25T02:16:37.275Z,100.00
2023-04-25T02:19:04.253Z,100.00
2023-04-25T02:21:31.531Z,100.00
2023-04-25T02:23:58.620Z,100.00
2023-04-25T02:26:27.986Z,100.00
2023-04-25T02:28:56.005Z,100.00
2023-04-25T02:31:23.058Z,100.00
2023-04-25T02:33:51.473Z,100.00
2023-04-25T02:36:18.389Z,100.00
2023-04-25T02:38:45.240Z,100.00
2023-04-25T02:41:12.118Z,100.00
2023-04-25T02:43:38.816Z,100.00
2023-04-25T02:46:05.645Z,100.00
2023-04-25T02:48:32.571Z,100.00
2023-04-25T02:50:59.522Z,100.00
2023-04-25T02:53:26.224Z,100.00
2023-04-25T02:55:54.355Z,100.00
2023-04-25T02:58:21.310Z,100.00
2023-04-25T03:00:51.525Z,100.00
2023-04-25T03:03:19.247Z,100.00
2023-04-25T03:05:47.868Z,100.00
2023-04-25T03:08:15.805Z,100.00
2023-04-25T03:10:43.751Z,100.00
2023-04-25T03:13:11.589Z,100.00
2023-04-25T03:15:40.372Z,100.00
2023-04-25T03:18:07.676Z,100.00
2023-04-25T03:20:34.505Z,100.00
2023-04-25T03:23:01.279Z,100.00
2023-04-25T03:25:29.817Z,100.00
2023-04-25T03:27:56.663Z,100.00
2023-04-25T03:30:23.715Z,100.00
2023-04-25T03:32:51.050Z,100.00
2023-04-25T03:35:18.214Z,100.00
2023-04-25T03:37:46.624Z,100.00
2023-04-25T03:40:18.867Z,100.00
2023-04-25T03:43:08.766Z,100.00
2023-04-25T03:45:36.720Z,100.00
2023-04-25T03:48:03.621Z,100.00
2023-04-25T03:50:31.414Z,100.00
2023-04-25T03:52:58.239Z,100.00
2023-04-25T03:55:29.701Z,100.00
2023-04-25T03:57:58.977Z,100.00
2023-04-25T04:00:26.485Z,100.00
2023-04-25T04:02:53.840Z,100.00
2023-04-25T04:05:20.806Z,100.00
2023-04-25T04:07:53.278Z,100.00
2023-04-25T04:10:20.165Z,100.00
2023-04-25T04:12:47.040Z,100.00
2023-04-25T04:15:13.930Z,100.00
2023-04-25T04:17:42.258Z,100.00
2023-04-25T04:20:09.941Z,100.00
2023-04-25T04:22:38.451Z,100.00
2023-04-25T04:25:11.127Z,100.00
2023-04-25T04:28:12.070Z,100.00
2023-04-25T04:30:56.693Z,100.00
2023-04-25T04:33:24.654Z,100.00
2023-04-25T04:35:57.511Z,100.00
2023-04-25T04:38:24.971Z,100.00
2023-04-25T04:40:53.603Z,100.00
2023-04-25T04:43:50.001Z,100.00
2023-04-25T04:46:43.386Z,100.00
2023-04-25T04:49:31.300Z,100.00
2023-04-25T04:52:20.374Z,100.00
2023-04-25T04:55:04.873Z,100.00
2023-04-25T04:57:44.177Z,100.00
2023-04-25T05:00:30.807Z,100.00
2023-04-25T05:03:16.226Z,100.00
2023-04-25T05:06:03.389Z,100.00
2023-04-25T05:09:09.035Z,100.00
2023-04-25T05:11:54.219Z,100.00
2023-04-25T05:14:36.375Z,100.00
2023-04-25T05:17:12.791Z,100.00
2023-04-25T05:19:58.114Z,100.00
2023-04-25T05:22:54.004Z,100.00
2023-04-25T05:25:41.299Z,100.00
2023-04-25T05:28:25.389Z,100.00
2023-04-25T05:31:08.077Z,100.00
2023-04-25T05:33:55.308Z,100.00
2023-04-25T05:36:23.517Z,100.00
2023-04-25T05:38:50.771Z,100.00
2023-04-25T05:41:20.981Z,100.00
2023-04-25T05:43:56.249Z,100.00
2023-04-25T05:46:33.564Z,100.00
2023-04-25T05:49:27.034Z,100.00
2023-04-25T05:52:03.381Z,100.00
2023-04-25T05:54:32.897Z,100.00
2023-04-25T05:57:01.450Z,100.00
2023-04-25T05:59:28.754Z,100.00
2023-04-25T06:01:55.961Z,100.00
2023-04-25T06:04:23.491Z,100.00
2023-04-25T06:06:50.548Z,100.00
2023-04-25T06:09:17.357Z,100.00
2023-04-25T06:11:44.465Z,100.00
2023-04-25T06:14:11.709Z,100.00
2023-04-25T06:16:45.325Z,100.00
2023-04-25T06:19:12.055Z,100.00
2023-04-25T06:21:38.763Z,100.00
2023-04-25T06:24:05.925Z,100.00
2023-04-25T06:26:32.684Z,100.00
2023-04-25T06:28:59.586Z,100.00
2023-04-25T06:31:26.992Z,100.00
2023-04-25T06:33:55.999Z,100.00
2023-04-25T06:36:26.222Z,100.00
2023-04-25T06:38:56.689Z,100.00
2023-04-25T06:41:23.498Z,100.00
2023-04-25T06:43:50.195Z,100.00
2023-04-25T06:46:25.113Z,100.00
2023-04-25T06:48:52.577Z,100.00
2023-04-25T06:51:22.176Z,100.00
2023-04-25T06:53:50.496Z,100.00
2023-04-25T06:56:26.505Z,100.00
2023-04-25T06:59:01.830Z,100.00
2023-04-25T07:01:47.668Z,100.00
2023-04-25T07:04:18.430Z,100.00
2023-04-25T07:06:50.715Z,100.00
2023-04-25T07:09:21.901Z,100.00
2023-04-25T07:11:50.027Z,100.00
2023-04-25T07:14:17.013Z,100.00
2023-04-25T07:16:43.849Z,100.00
2023-04-25T07:19:11.285Z,100.00
2023-04-25T07:21:38.466Z,100.00
2023-04-25T07:24:06.786Z,100.00
2023-04-25T07:26:37.095Z,100.00
2023-04-25T07:29:38.433Z,100.00
2023-04-25T07:32:05.703Z,100.00
2023-04-25T07:34:33.149Z,100.00
2023-04-25T07:37:00.530Z,100.00
2023-04-25T07:39:33.395Z,100.00
2023-04-25T07:42:01.432Z,100.00
2023-04-25T07:44:31.454Z,100.00
2023-04-25T07:46:58.695Z,100.00
2023-04-25T07:49:25.883Z,100.00
2023-04-25T07:51:52.809Z,100.00
2023-04-25T07:54:21.124Z,100.00
2023-04-25T07:56:53.862Z,99.19
2023-04-25T07:59:26.687Z,95.64
2023-04-25T08:01:54.416Z,97.42
2023-04-25T08:04:23.735Z,96.67
2023-04-25T08:06:55.407Z,99.17
2023-04-25T08:09:28.864Z,98.45
2023-04-25T08:11:56.676Z,93.97
2023-04-25T08:14:28.218Z,98.34
2023-04-25T08:16:54.987Z,95.49
2023-04-25T08:19:21.758Z,100.00
2023-04-25T08:21:48.635Z,99.17
2023-04-25T08:24:21.024Z,100.00
2023-04-25T08:26:47.841Z,98.97
2023-04-25T08:29:17.547Z,100.00
2023-04-25T08:31:44.853Z,100.00
2023-04-25T08:34:12.221Z,100.00
2023-04-25T08:36:48.679Z,100.00
2023-04-25T08:39:38.538Z,100.00
2023-04-25T08:42:28.964Z,100.00
2023-04-25T08:44:56.749Z,100.00
2023-04-25T08:47:29.036Z,100.00
2023-04-25T08:49:57.612Z,100.00
2023-04-25T08:52:25.721Z,100.00
2023-04-25T08:54:53.980Z,100.00
2023-04-25T08:57:22.354Z,98.89
2023-04-25T08:59:50.306Z,96.84
2023-04-25T09:02:20.305Z,95.02
2023-04-25T09:04:49.685Z,96.44
2023-04-25T09:07:19.695Z,89.03
2023-04-25T09:09:46.771Z,91.60
2023-04-25T09:12:19.649Z,90.67
2023-04-25T09:15:03.932Z,85.01
2023-04-25T09:17:46.191Z,88.39
2023-04-25T09:20:14.497Z,75.54
2023-04-25T09:22:41.342Z,78.36
2023-04-25T09:25:13.001Z,70.47
2023-04-25T09:27:52.321Z,76.10
2023-04-25T09:30:34.820Z,73.77
2023-04-25T09:33:16.298Z,74.04
2023-04-25T09:35:54.232Z,76.20
2023-04-25T09:38:45.657Z,76.12
2023-04-25T09:41:24.364Z,77.34
2023-04-25T09:43:51.817Z,79.90
2023-04-25T09:46:22.197Z,78.64
2023-04-25T09:48:55.194Z,83.96
2023-04-25T09:51:56.033Z,82.39
2023-04-25T09:54:24.650Z,80.04
2023-04-25T09:56:59.028Z,85.87
2023-04-25T09:59:26.143Z,83.71
2023-04-25T10:01:53.632Z,76.43
2023-04-25T10:04:30.639Z,72.89
2023-04-25T10:07:09.248Z,70.74
2023-04-25T10:09:39.218Z,69.64
2023-04-25T10:12:06.857Z,59.96
2023-04-25T10:14:33.874Z,60.39
2023-04-25T10:17:01.595Z,56.92
2023-04-25T10:19:29.940Z,56.77
2023-04-25T10:22:09.439Z,57.00
2023-04-25T10:24:38.489Z,53.88
2023-04-25T10:27:05.818Z,56.50
2023-04-25T10:29:33.011Z,53.77
2023-04-25T10:31:59.873Z,56.69
2023-04-25T10:34:43.857Z,55.48
2023-04-25T10:37:12.273Z,55.18
2023-04-25T10:39:42.808Z,53.14
2023-04-25T10:42:09.806Z,52.04
2023-04-25T10:44:40.065Z,52.53
2023-04-25T10:47:08.835Z,52.42
2023-04-25T10:49:43.077Z,52.66
2023-04-25T10:52:16.004Z,50.43
2023-04-25T10:54:50.659Z,49.33
2023-04-25T10:57:32.686Z,51.16
2023-04-25T11:00:20.173Z,52.26
2023-04-25T11:02:48.510Z,51.28
2023-04-25T11:08:35.160Z,51.82
2023-04-25T11:11:02.444Z,51.45
2023-04-25T11:13:34.316Z,52.72
2023-04-25T11:19:00.391Z,55.81
2023-04-25T11:21:32.248Z,58.40
2023-04-25T11:24:00.602Z,61.56
2023-04-25T11:26:27.439Z,60.89
2023-04-25T11:28:59.477Z,59.32
2023-04-25T11:31:26.807Z,59.42
2023-04-25T11:33:55.804Z,60.61
2023-04-25T11:36:24.629Z,58.38
2023-04-25T11:38:52.863Z,58.03
2023-04-25T11:41:23.312Z,54.50
2023-04-25T11:43:52.892Z,54.70
2023-04-25T11:46:21.346Z,53.19
2023-04-25T11:48:49.214Z,55.94
2023-04-25T11:51:16.578Z,54.21
2023-04-25T11:53:43.959Z,53.29
2023-04-25T11:56:12.451Z,51.61
2023-04-25T11:59:07.674Z,53.38
2023-04-25T12:01:41.715Z,53.33
2023-04-25T12:04:19.747Z,55.18
2023-04-25T12:06:48.954Z,54.07
2023-04-25T12:09:29.444Z,52.43
2023-04-25T12:11:57.399Z,52.87
2023-04-25T12:14:32.920Z,51.60
2023-04-25T12:17:01.695Z,52.04
2023-04-25T12:19:34.635Z,52.42
2023-04-25T12:22:04.974Z,52.78
2023-04-25T12:24:38.418Z,51.58
2023-04-25T12:27:07.336Z,52.72
2023-04-25T12:29:48.628Z,50.79
2023-04-25T12:32:17.950Z,49.70
2023-04-25T12:34:45.058Z,49.42
2023-04-25T12:37:12.503Z,49.05
2023-04-25T12:39:39.259Z,51.13
2023-04-25T12:42:09.289Z,48.76
2023-04-25T12:44:36.690Z,47.80
2023-04-25T12:47:04.530Z,47.48
2023-04-25T12:49:31.507Z,46.91
2023-04-25T12:51:58.395Z,48.15
2023-04-25T12:54:26.621Z,44.78
2023-04-25T12:56:53.729Z,46.76
2023-04-25T12:59:21.585Z,46.15
2023-04-25T13:01:48.600Z,46.62
2023-04-25T13:04:16.149Z,47.00
2023-04-25T13:06:43.524Z,46.61
2023-04-25T13:09:13.480Z,46.47
2023-04-25T13:11:41.523Z,48.51
2023-04-25T13:14:09.011Z,50.76
2023-04-25T13:16:36.095Z,51.61
2023-04-25T13:19:04.045Z,52.15
2023-04-25T13:21:33.853Z,52.86
2023-04-25T13:24:00.797Z,53.87
2023-04-25T13:26:27.624Z,53.68
2023-04-25T13:28:54.385Z,52.82
2023-04-25T13:31:21.140Z,51.36
2023-04-25T13:33:48.346Z,50.68
2023-04-25T13:36:15.596Z,49.82
2023-04-25T13:38:45.081Z,49.73
2023-04-25T13:41:16.841Z,49.45
2023-04-25T13:43:43.849Z,48.94
2023-04-25T13:46:30.004Z,48.62
2023-04-25T13:49:09.982Z,49.26
2023-04-25T13:51:39.478Z,48.41
2023-04-25T13:54:06.286Z,46.79
2023-04-25T13:56:33.265Z,47.33
2023-04-25T13:59:00.125Z,46.14
2023-04-25T14:01:29.122Z,47.61
2023-04-25T14:03:56.171Z,47.41
2023-04-25T14:06:25.004Z,47.59
2023-04-25T14:08:52.272Z,47.54
2023-04-25T14:11:25.337Z,47.75
2023-04-25T14:13:52.337Z,47.71
2023-04-25T14:16:19.559Z,47.93
2023-04-25T14:18:46.542Z,48.07
2023-04-25T14:21:13.497Z,50.11
2023-04-25T14:23:40.282Z,48.14
2023-04-25T14:26:07.106Z,46.99
2023-04-25T14:28:36.549Z,47.29
2023-04-25T14:31:04.086Z,46.81
2023-04-25T14:33:31.713Z,44.79
2023-04-25T14:35:58.496Z,45.29
2023-04-25T14:38:26.608Z,45.87
2023-04-25T14:40:57.333Z,46.03
2023-04-25T14:43:24.141Z,46.63
2023-04-25T14:45:51.098Z,46.80
2023-04-25T14:48:20.508Z,48.08
2023-04-25T14:50:47.636Z,46.67
2023-04-25T14:53:14.526Z,46.46
2023-04-25T14:55:41.479Z,48.21
2023-04-25T14:58:08.480Z,48.18
2023-04-25T15:00:36.645Z,47.77
2023-04-25T15:03:06.352Z,49.27
2023-04-25T15:05:33.126Z,49.30
2023-04-25T15:07:59.953Z,49.21
2023-04-25T15:10:27.702Z,49.43
2023-04-25T15:12:54.659Z,50.03
2023-04-25T15:15:26.624Z,49.22
2023-04-25T15:17:59.087Z,49.26
2023-04-25T15:20:26.816Z,49.41
2023-04-25T15:22:53.684Z,48.67
2023-04-25T15:25:20.550Z,47.85
2023-04-25T15:27:49.407Z,47.45
2023-04-25T15:30:17.554Z,46.64
2023-04-25T15:32:48.357Z,47.09
2023-04-25T15:35:16.128Z,48.20
2023-04-25T15:37:43.261Z,47.74
2023-04-25T15:40:13.733Z,46.88
2023-04-25T15:42:43.467Z,47.81
2023-04-25T15:45:11.454Z,48.37
2023-04-25T15:47:39.001Z,48.01
2023-04-25T15:50:09.527Z,49.93
2023-04-25T15:52:37.562Z,49.13
2023-04-25T15:55:04.996Z,47.85
2023-04-25T15:57:33.904Z,49.18
2023-04-25T16:00:03.130Z,47.72
2023-04-25T16:02:39.350Z,48.00
2023-04-25T16:05:06.738Z,47.66
2023-04-25T16:07:36.347Z,47.57
2023-04-25T16:10:03.254Z,48.23
2023-04-25T16:12:31.124Z,48.14
2023-04-25T16:14:58.367Z,48.36
2023-04-25T16:17:33.293Z,47.93
2023-04-25T16:20:02.154Z,49.38
2023-04-25T16:22:29.047Z,47.21
2023-04-25T16:24:55.753Z,48.86
2023-04-25T16:27:22.545Z,47.75
2023-04-25T16:29:51.582Z,48.06
2023-04-25T16:32:18.481Z,47.99
2023-04-25T16:34:45.631Z,48.73
2023-04-25T16:37:15.750Z,49.57
2023-04-25T16:39:42.601Z,49.77
2023-04-25T16:42:09.227Z,49.80
2023-04-25T16:44:38.122Z,48.61
2023-04-25T16:47:06.162Z,50.18
2023-04-25T16:49:33.482Z,49.67
2023-04-25T16:52:00.289Z,48.64
2023-04-25T16:54:27.942Z,48.47
2023-04-25T16:56:54.777Z,50.17
2023-04-25T16:59:21.449Z,49.25
2023-04-25T17:01:48.961Z,49.54
2023-04-25T17:04:15.980Z,50.51
2023-04-25T17:06:43.124Z,49.45
2023-04-25T17:09:10.581Z,49.19
2023-04-25T17:11:37.800Z,48.34
2023-04-25T17:14:04.942Z,49.25
2023-04-25T17:16:36.690Z,49.73
2023-04-25T17:19:05.014Z,49.52
2023-04-25T17:21:32.177Z,49.57
2023-04-25T17:23:59.291Z,50.07
2023-04-25T17:26:26.682Z,50.10
2023-04-25T17:28:54.383Z,51.33
2023-04-25T17:31:23.630Z,50.29
2023-04-25T17:33:50.801Z,50.59
2023-04-25T17:36:18.118Z,50.55
2023-04-25T17:38:44.811Z,51.07
2023-04-25T17:41:13.221Z,51.80
2023-04-25T17:43:40.241Z,51.35
2023-04-25T17:46:07.115Z,51.16
2023-04-25T17:48:34.051Z,51.25
2023-04-25T17:51:02.689Z,51.67
2023-04-25T17:53:29.424Z,50.94
2023-04-25T17:55:56.480Z,51.44
2023-04-25T17:58:23.205Z,52.06
2023-04-25T18:00:50.138Z,50.91
2023-04-25T18:03:17.426Z,50.96
2023-04-25T18:05:44.269Z,51.03
2023-04-25T18:08:11.041Z,51.37
2023-04-25T18:10:39.031Z,51.63
2023-04-25T18:13:05.706Z,50.16
2023-04-25T18:15:32.661Z,50.75
2023-04-25T18:17:59.679Z,49.64
2023-04-25T18:20:28.558Z,50.66
2023-04-25T18:22:55.296Z,50.32
2023-04-25T18:25:22.134Z,50.45
2023-04-25T18:27:50.701Z,50.58
2023-04-25T18:30:17.613Z,50.75
2023-04-25T18:32:47.448Z,50.69
2023-04-25T18:35:14.262Z,51.45
2023-04-25T18:37:42.329Z,53.32
2023-04-25T18:40:13.669Z,52.38
2023-04-25T18:42:40.488Z,53.54
2023-04-25T18:45:07.923Z,55.42
2023-04-25T18:47:34.682Z,56.67
2023-04-25T18:50:01.529Z,58.31
2023-04-25T18:52:28.544Z,62.71
2023-04-25T18:54:55.323Z,61.16
2023-04-25T18:57:22.241Z,61.00
2023-04-25T18:59:49.244Z,60.91
2023-04-25T19:02:16.698Z,63.57
2023-04-25T19:04:43.987Z,62.35
2023-04-25T19:07:10.904Z,63.33
2023-04-25T19:09:38.705Z,62.97
2023-04-25T19:12:05.888Z,63.28
2023-04-25T19:14:33.656Z,64.53
2023-04-25T19:17:00.828Z,63.91
2023-04-25T19:19:27.985Z,63.06
2023-04-25T19:21:54.821Z,64.13
2023-04-25T19:24:22.195Z,64.08
2023-04-25T19:26:49.009Z,65.85
2023-04-25T19:29:16.194Z,63.46
2023-04-25T19:31:44.627Z,64.82
2023-04-25T19:34:23.617Z,64.63
2023-04-25T19:36:52.822Z,65.24
2023-04-25T19:39:20.723Z,66.12
2023-04-25T19:41:47.531Z,68.34
2023-04-25T19:44:14.300Z,66.36
2023-04-25T19:46:42.235Z,67.76
2023-04-25T19:49:09.602Z,66.73
2023-04-25T19:51:37.596Z,65.90
2023-04-25T19:54:07.037Z,67.73
2023-04-25T19:56:33.937Z,66.32
2023-04-25T19:59:00.825Z,65.29
2023-04-25T20:01:28.045Z,70.66
2023-04-25T20:03:55.365Z,69.06
2023-04-25T20:06:22.356Z,71.69
2023-04-25T20:08:50.613Z,70.62
2023-04-25T20:11:17.720Z,72.51
2023-04-25T20:13:45.034Z,70.73
2023-04-25T20:16:12.249Z,68.83
2023-04-25T20:18:40.357Z,68.98
2023-04-25T20:21:08.600Z,65.74
2023-04-25T20:23:35.535Z,67.29
2023-04-25T20:26:04.731Z,66.44
2023-04-25T20:28:31.781Z,66.86
2023-04-25T20:30:59.801Z,67.41
2023-04-25T20:33:26.831Z,68.15
2023-04-25T20:35:54.177Z,66.68
2023-04-25T20:38:21.003Z,69.21
2023-04-25T20:40:47.989Z,69.60
2023-04-25T20:43:15.229Z,69.17
2023-04-25T20:45:42.032Z,72.22
2023-04-25T20:48:08.760Z,70.56
2023-04-25T20:50:35.583Z,69.80
2023-04-25T20:53:03.549Z,72.83
2023-04-25T20:55:30.895Z,70.80
2023-04-25T20:57:57.958Z,70.76
2023-04-25T21:00:29.669Z,69.39
2023-04-25T21:02:57.676Z,69.72
2023-04-25T21:05:24.925Z,68.91
2023-04-25T21:07:54.605Z,67.54
2023-04-25T21:10:22.111Z,67.27
2023-04-25T21:12:49.737Z,68.87
2023-04-25T21:15:22.713Z,69.65
2023-04-25T21:17:52.316Z,70.32
2023-04-25T21:20:21.369Z,70.77
2023-04-25T21:22:51.803Z,72.04
2023-04-25T21:25:25.435Z,72.67
2023-04-25T21:27:53.150Z,70.74
2023-04-25T21:30:23.361Z,71.78
2023-04-25T21:32:51.411Z,73.69
2023-04-25T21:35:19.929Z,73.15
2023-04-25T21:37:47.246Z,71.90
2023-04-25T21:40:14.792Z,73.09
2023-04-25T21:42:42.467Z,75.09
2023-04-25T21:45:10.207Z,74.86
2023-04-25T21:47:37.198Z,74.75
2023-04-25T21:50:04.772Z,75.45
2023-04-25T21:52:32.034Z,72.96
2023-04-25T21:55:00.606Z,75.05
2023-04-25T21:57:27.609Z,75.35
2023-04-25T21:59:55.673Z,78.83
2023-04-25T22:02:22.813Z,76.64
2023-04-25T22:04:49.992Z,75.79
2023-04-25T22:07:17.190Z,77.09
2023-04-25T22:09:54.227Z,77.22
2023-04-25T22:12:23.297Z,79.16
2023-04-25T22:14:51.045Z,77.94
2023-04-25T22:17:18.958Z,76.18
2023-04-25T22:19:46.650Z,76.88
2023-04-25T22:22:13.331Z,77.35
2023-04-25T22:24:40.229Z,77.50
2023-04-25T22:27:06.926Z,81.20
2023-04-25T22:29:34.192Z,79.94
2023-04-25T22:32:01.917Z,81.76
2023-04-25T22:34:28.833Z,83.26
2023-04-25T22:36:55.866Z,83.26
2023-04-25T22:39:23.261Z,82.88
2023-04-25T22:41:50.088Z,83.00
2023-04-25T22:44:16.834Z,83.97
2023-04-25T22:46:43.876Z,83.83
2023-04-25T22:49:10.859Z,83.95
2023-04-25T22:51:37.849Z,80.87
2023-04-25T22:54:05.482Z,83.61
2023-04-25T22:56:32.748Z,83.96
2023-04-25T22:58:59.568Z,87.07
2023-04-25T23:01:28.014Z,90.13
2023-04-25T23:03:55.180Z,91.14
2023-04-25T23:06:22.884Z,88.40
2023-04-25T23:08:49.789Z,90.76
2023-04-25T23:11:16.782Z,90.62
2023-04-25T23:13:43.706Z,90.92
2023-04-25T23:16:10.952Z,90.61
2023-04-25T23:18:39.486Z,89.36
2023-04-25T23:21:09.543Z,90.32
2023-04-25T23:23:36.583Z,90.10
2023-04-25T23:26:10.318Z,89.95
2023-04-25T23:28:42.003Z,91.95
2023-04-25T23:31:10.420Z,92.31
2023-04-25T23:33:37.336Z,93.09
2023-04-25T23:36:04.438Z,92.07
2023-04-25T23:38:32.177Z,92.89
2023-04-25T23:40:58.934Z,96.23
2023-04-25T23:43:25.635Z,97.23
2023-04-25T23:45:54.143Z,97.43
2023-04-25T23:48:21.010Z,99.08
2023-04-25T23:50:47.887Z,97.32
2023-04-25T23:53:14.727Z,94.07
2023-04-25T23:55:41.709Z,92.08
2023-04-25T23:58:08.517Z,92.35
